Flight Track Log - Related Links

Times and Time Zones

All times are in EDT time to prevent confusion due to time zone crossing. See the N587DG flight status page for this flight to view local times or setup timezone preferences in your user account.

Time Position Orientation Groundspeed Altitude Reporting Facility
EDT Latitude Longitude Course Direction KTS MPH feet Rate Location/Type
Mon 02:32:32 PM 39.4222 -88.4061 239° Southwest 120 138 4,000  Level Kansas City Center
Mon 02:33:36 PM 39.4086 -88.4419 244° Southwest 121 139 4,000  Level Kansas City Center
Mon 02:34:00 PM 39.4137 -88.4162 239° Southwest  Level Estimated
Mon 02:35:00 PM 39.3676 -88.4997 238° Southwest  Level FlightAware Approximate
Mon 02:40:38 PM 39.2508 -88.7483 238° Southwest 155 178 4,000  Level Kansas City Center
Mon 02:41:39 PM 39.2314 -88.7925 240° Southwest 145 167 4,000  Level Kansas City Center
Mon 02:42:00 PM 39.2164 -88.8157 238° Southwest  Level FlightAware Approximate
Mon 02:42:42 PM 39.2122 -88.8361 240° Southwest 143 165 4,000  Level Kansas City Center
Mon 02:43:00 PM 39.1947 -88.8607 238° Southwest  Level FlightAware Approximate
Mon 02:43:43 PM 39.1933 -88.8797 241° Southwest 141 162 4,000  Level Kansas City Center
Mon 02:44:00 PM 39.1730 -88.9057 238° Southwest  Level FlightAware Approximate
Mon 02:44:44 PM 39.1719 -88.9231 238° Southwest 142 163 4,000  Level Kansas City Center
Mon 02:45:00 PM 39.1513 -88.9507 238° Southwest  Level FlightAware Approximate
Mon 02:45:48 PM 39.1450 -88.9750 236° Southwest 145 167 4,100  Level Kansas City Center
Mon 02:46:48 PM 39.1236 -89.0186 238° Southwest 145 167 4,100  Level Kansas City Center
Mon 02:47:52 PM 39.1008 -89.0642 237° Southwest 142 163 4,100  Level Kansas City Center
Mon 02:48:52 PM 39.0800 -89.1083 239° Southwest 143 165 4,100  Level Kansas City Center
Mon 02:49:56 PM 39.0572 -89.1561 238° Southwest 146 168 4,100  Level Kansas City Center
Mon 02:50:57 PM 39.0364 -89.2006 239° Southwest 146 168 4,100  Level Kansas City Center
Mon 02:51:58 PM 39.0142 -89.2450 237° Southwest 139 160 4,100  Level Kansas City Center
Mon 02:53:02 PM 38.9947 -89.2864 239° Southwest 136 157 4,100  Level Kansas City Center
Mon 02:54:02 PM 38.9733 -89.3308 238° Southwest 136 157 4,100  Level Kansas City Center
Mon 02:55:06 PM 38.9536 -89.3711 238° Southwest 135 155 4,100  Level Kansas City Center
Mon 02:56:07 PM 38.9339 -89.4117 238° Southwest 133 153 4,100  Level Kansas City Center
Mon 02:57:08 PM 38.9139 -89.4528 238° Southwest 125 144 4,100  Level Kansas City Center
Mon 02:58:12 PM 38.8961 -89.4897 238° Southwest 123 142 4,100  Level Kansas City Center
Mon 02:59:13 PM 38.8767 -89.5303 238° Southwest 123 142 4,100  Level Kansas City Center
Mon 03:00:17 PM 38.8583 -89.5681 238° Southwest 125 144 4,100  Level Kansas City Center
Mon 03:01:18 PM 38.8389 -89.6078 238° Southwest 123 142 4,100  Level Kansas City Center
Mon 03:02:19 PM 38.8208 -89.6444 238° Southwest 123 142 4,100  Level Kansas City Center
Mon 03:03:22 PM 38.8056 -89.6761 238° Southwest 121 139 4,100  Level Kansas City Center
Mon 03:04:23 PM 38.7878 -89.7156 240° Southwest 123 142 4,100  Level Kansas City Center
Mon 03:05:24 PM 38.7658 -89.7597 238° Southwest 123 142 4,100  Level Kansas City Center
Mon 03:06:29 PM 38.7461 -89.7989 237° Southwest 126 145 4,100  Level Kansas City Center
Mon 03:07:29 PM 38.7158 -89.8242 213° Southwest 133 153 4,100  Level Kansas City Center
Mon 03:08:30 PM 38.6822 -89.8406 201° Southwest 132 152 4,100  Level Kansas City Center
Mon 03:09:34 PM 38.6494 -89.8572 202° Southwest 129 148 4,100  Level Kansas City Center
Mon 03:10:35 PM 38.6167 -89.8722 200° South 127 146 4,100  Level Kansas City Center
Mon 03:11:38 PM 38.5786 -89.8911 201° Southwest 124 143 4,100 -194 Level Kansas City Center
Mon 03:12:39 PM 38.5450 -89.9092 203° Southwest 125 144 3,700 -443 Descending Kansas City Center
Mon 03:13:40 PM 38.5117 -89.9269 203° Southwest 128 147 3,200 -339 Descending Kansas City Center
Mon 03:14:43 PM 38.4872 -89.9497 216° Southwest 130 150 3,000 -290 Descending Kansas City Center
Mon 03:15:44 PM 38.4853 -89.9850 266° West 111 128 2,600 -339 Descending Kansas City Center
Mon 03:16:47 PM 38.5011 -90.0203 300° West 110 127 2,300 -290 Descending Kansas City Center
Mon 03:17:48 PM 38.5197 -90.0567 303° West 107 123 2,000 -387 Descending Kansas City Center
Mon 03:18:51 PM 38.5347 -90.0872 302° West 103 119 1,500 -484 Descending Kansas City Center
Mon 03:19:52 PM 38.5494 -90.1158 303° West 101 116 1,000 -435 Descending Kansas City Center
Mon 03:20:55 PM 38.5633 -90.1411 305° West 95 109 600 -381 Descending Kansas City Center

Login

Don't have an account? Register now (free) for customized features, flight alerts, and more!